createdAt,value
2022-10-06T00:01:53.281Z,16.50
2022-10-06T00:06:56.590Z,16.50
2022-10-06T00:11:59.962Z,16.50
2022-10-06T00:17:05.666Z,16.40
2022-10-06T00:22:08.952Z,16.30
2022-10-06T00:27:12.481Z,16.30
2022-10-06T00:32:17.111Z,16.20
2022-10-06T00:37:20.495Z,16.20
2022-10-06T00:42:25.679Z,16.10
2022-10-06T00:47:33.172Z,16.00
2022-10-06T00:52:37.077Z,16.00
2022-10-06T00:57:42.226Z,16.00
2022-10-06T01:02:51.863Z,16.10
2022-10-06T01:07:55.427Z,16.10
2022-10-06T01:12:58.820Z,16.10
2022-10-06T01:18:07.028Z,16.20
2022-10-06T01:23:12.009Z,16.20
2022-10-06T01:28:15.918Z,16.30
2022-10-06T01:33:19.733Z,16.40
2022-10-06T01:38:24.399Z,16.40
2022-10-06T01:43:28.981Z,16.30
2022-10-06T01:48:32.677Z,16.40
2022-10-06T01:53:37.624Z,16.40
2022-10-06T01:58:40.894Z,16.40
2022-10-06T02:03:44.172Z,16.40
2022-10-06T02:08:49.126Z,16.40
2022-10-06T02:13:52.419Z,16.40
2022-10-06T02:18:55.769Z,16.40
2022-10-06T02:24:00.414Z,16.40
2022-10-06T02:29:03.754Z,16.40
2022-10-06T02:34:07.068Z,16.30
2022-10-06T02:39:12.127Z,16.30
2022-10-06T02:44:16.101Z,16.20
2022-10-06T02:49:19.388Z,16.20
2022-10-06T02:54:24.484Z,16.20
2022-10-06T02:59:28.095Z,16.10
2022-10-06T03:04:31.409Z,16.10
2022-10-06T03:09:36.173Z,16.10
2022-10-06T03:14:39.903Z,16.20
2022-10-06T03:19:43.431Z,16.20
2022-10-06T03:24:48.073Z,16.20
2022-10-06T03:29:51.610Z,16.30
2022-10-06T03:34:55.205Z,16.20
2022-10-06T03:40:00.843Z,16.20
2022-10-06T03:45:04.415Z,16.20
2022-10-06T03:50:09.454Z,16.30
2022-10-06T03:55:14.104Z,16.20
2022-10-06T04:00:17.483Z,16.20
2022-10-06T04:05:20.979Z,16.10
2022-10-06T04:10:26.350Z,16.10
2022-10-06T04:15:29.611Z,16.10
2022-10-06T04:20:33.268Z,16.10
2022-10-06T04:25:37.932Z,16.10
2022-10-06T04:30:41.458Z,16.10
2022-10-06T04:35:44.732Z,16.10
2022-10-06T04:40:49.341Z,16.10
2022-10-06T04:46:09.517Z,16.10
2022-10-06T04:51:26.398Z,16.10
2022-10-06T04:56:32.625Z,16.10
2022-10-06T05:01:37.319Z,16.10
2022-10-06T05:06:42.391Z,16.10
2022-10-06T05:11:48.174Z,16.00
2022-10-06T05:16:51.640Z,16.00
2022-10-06T05:21:55.351Z,16.00
2022-10-06T05:27:02.181Z,15.90
2022-10-06T05:32:05.886Z,15.90
2022-10-06T05:37:09.430Z,15.90
2022-10-06T05:42:14.019Z,15.90
2022-10-06T05:47:17.590Z,15.90
2022-10-06T05:52:20.886Z,15.80
2022-10-06T05:57:25.770Z,15.80
2022-10-06T06:02:29.340Z,15.80
2022-10-06T06:07:32.720Z,15.80
2022-10-06T06:12:37.511Z,15.80
2022-10-06T06:17:40.764Z,15.80
2022-10-06T06:22:44.017Z,15.80
2022-10-06T06:27:48.696Z,15.80
2022-10-06T06:32:51.961Z,15.90
2022-10-06T06:37:55.323Z,16.00
2022-10-06T06:42:59.957Z,16.10
2022-10-06T06:48:04.240Z,16.20
2022-10-06T06:53:07.671Z,16.30
2022-10-06T06:58:12.738Z,16.40
2022-10-06T07:03:28.225Z,16.60
2022-10-06T07:08:43.753Z,16.70
2022-10-06T07:13:52.480Z,16.80
2022-10-06T07:19:13.097Z,17.00
2022-10-06T07:24:34.964Z,17.10
2022-10-06T07:29:39.826Z,17.30
2022-10-06T07:39:51.741Z,17.70
2022-10-06T07:45:14.022Z,17.90
2022-10-06T07:50:17.422Z,18.00
2022-10-06T07:55:20.745Z,18.10
2022-10-06T08:00:27.571Z,18.20
2022-10-06T08:05:32.380Z,18.30
2022-10-06T08:10:36.137Z,18.40
2022-10-06T08:15:40.765Z,18.50
2022-10-06T08:20:45.881Z,18.60
2022-10-06T08:25:51.900Z,18.70
2022-10-06T08:30:57.169Z,18.80
2022-10-06T08:36:04.260Z,18.80
2022-10-06T08:41:22.372Z,18.80
2022-10-06T08:46:33.772Z,19.00
2022-10-06T08:51:51.451Z,19.10
2022-10-06T08:57:03.673Z,19.10
2022-10-06T09:02:22.132Z,19.10
2022-10-06T09:07:33.383Z,19.10
2022-10-06T09:12:40.650Z,19.20
2022-10-06T09:17:50.289Z,19.20
2022-10-06T09:22:56.680Z,19.20
2022-10-06T09:28:03.336Z,19.30
2022-10-06T09:33:14.833Z,19.30
2022-10-06T09:38:18.795Z,19.40
2022-10-06T09:43:26.803Z,19.40
2022-10-06T09:48:31.655Z,19.20
2022-10-06T09:53:37.644Z,19.20
2022-10-06T09:58:41.174Z,19.00
2022-10-06T10:04:15.445Z,18.90
2022-10-06T10:09:27.031Z,18.90
2022-10-06T10:14:38.085Z,18.90
2022-10-06T10:19:46.727Z,18.90
2022-10-06T10:24:59.013Z,18.90
2022-10-06T10:30:09.424Z,18.80
2022-10-06T10:35:24.568Z,18.70
2022-10-06T10:40:35.643Z,18.40
2022-10-06T10:45:45.046Z,18.20
2022-10-06T10:50:59.113Z,18.10
2022-10-06T10:56:03.921Z,18.00
2022-10-06T11:01:18.764Z,17.90
2022-10-06T11:06:43.784Z,17.90
2022-10-06T11:11:57.148Z,17.70
2022-10-06T11:17:06.485Z,17.70
2022-10-06T11:22:20.153Z,17.70
2022-10-06T11:27:34.851Z,17.70
2022-10-06T11:32:48.385Z,17.70
2022-10-06T11:38:00.832Z,17.80
2022-10-06T11:43:10.240Z,17.80
2022-10-06T11:48:24.381Z,17.80
2022-10-06T11:53:41.935Z,17.80
2022-10-06T11:59:27.416Z,17.70
2022-10-06T12:04:31.272Z,17.70
2022-10-06T12:10:16.920Z,17.70
2022-10-06T12:21:06.318Z,17.80
2022-10-06T12:26:24.590Z,17.80
2022-10-06T12:31:46.478Z,17.70
2022-10-06T12:36:49.893Z,17.90
2022-10-06T12:42:02.667Z,17.90
2022-10-06T12:47:10.815Z,18.10
2022-10-06T12:52:27.559Z,18.10
2022-10-06T12:57:33.514Z,18.10
2022-10-06T13:02:36.944Z,18.10
2022-10-06T13:07:59.292Z,18.20
2022-10-06T13:13:19.600Z,18.30
2022-10-06T13:18:24.390Z,18.20
2022-10-06T13:23:30.677Z,18.30
2022-10-06T13:28:49.282Z,18.30
2022-10-06T13:33:56.355Z,18.30
2022-10-06T13:39:00.215Z,18.40
2022-10-06T13:44:25.121Z,18.60
2022-10-06T13:49:33.861Z,18.80
2022-10-06T13:54:42.131Z,19.10
2022-10-06T13:59:46.852Z,19.30
2022-10-06T14:05:20.225Z,19.40
2022-10-06T14:10:29.155Z,19.70
2022-10-06T14:15:46.485Z,19.80
2022-10-06T14:20:51.170Z,19.90
2022-10-06T14:25:54.445Z,19.90
2022-10-06T14:30:59.178Z,19.90
2022-10-06T14:36:02.876Z,19.90
2022-10-06T14:41:06.412Z,19.90
2022-10-06T14:46:14.233Z,19.90
2022-10-06T14:51:18.522Z,19.80
2022-10-06T14:56:22.877Z,19.70
2022-10-06T15:01:28.792Z,19.70
2022-10-06T15:06:49.382Z,19.60
2022-10-06T15:11:54.036Z,19.30
2022-10-06T15:17:00.531Z,19.20
2022-10-06T15:22:04.656Z,19.10
2022-10-06T15:27:34.034Z,19.00
2022-10-06T15:32:38.716Z,18.80
2022-10-06T15:37:42.344Z,18.80
2022-10-06T15:42:50.158Z,18.80
2022-10-06T15:47:54.843Z,18.70
2022-10-06T15:52:58.109Z,18.60
2022-10-06T15:58:01.651Z,18.50
2022-10-06T16:03:22.744Z,18.60
2022-10-06T16:08:26.003Z,18.60
2022-10-06T16:13:29.617Z,18.60
2022-10-06T16:18:34.274Z,18.60
2022-10-06T16:23:37.554Z,18.60
2022-10-06T16:28:41.133Z,18.50
2022-10-06T16:33:46.159Z,18.40
2022-10-06T16:38:54.583Z,18.30
2022-10-06T16:44:00.377Z,18.20
2022-10-06T16:49:07.342Z,18.20
2022-10-06T16:54:12.636Z,18.10
2022-10-06T16:59:17.472Z,18.10
2022-10-06T17:04:23.499Z,18.00
2022-10-06T17:09:28.466Z,17.90
2022-10-06T17:14:34.572Z,17.80
2022-10-06T17:19:39.605Z,17.70
2022-10-06T17:24:43.125Z,17.60
2022-10-06T17:29:46.485Z,17.40
2022-10-06T17:34:55.305Z,17.40
2022-10-06T17:39:58.640Z,17.30
2022-10-06T17:45:02.297Z,17.30
2022-10-06T17:50:08.093Z,17.10
2022-10-06T17:55:11.622Z,17.00
2022-10-06T18:00:18.239Z,17.00
2022-10-06T18:05:23.006Z,16.80
2022-10-06T18:10:43.803Z,16.80
2022-10-06T18:15:50.727Z,16.60
2022-10-06T18:21:03.461Z,16.60
2022-10-06T18:26:06.977Z,16.50
2022-10-06T18:31:10.477Z,16.40
2022-10-06T18:36:16.313Z,16.30
2022-10-06T18:41:20.982Z,16.30
2022-10-06T18:46:41.907Z,16.20
2022-10-06T18:51:48.666Z,16.10
2022-10-06T18:56:52.612Z,16.00
2022-10-06T19:01:57.893Z,15.90
2022-10-06T19:07:03.053Z,15.80
2022-10-06T19:12:06.452Z,15.80
2022-10-06T19:17:13.182Z,15.70
2022-10-06T19:22:20.292Z,15.60
2022-10-06T19:27:25.572Z,15.60
2022-10-06T19:32:32.171Z,15.60
2022-10-06T19:37:37.139Z,15.50
2022-10-06T19:42:49.386Z,15.40
2022-10-06T19:47:53.567Z,15.30
2022-10-06T19:52:58.705Z,15.20
2022-10-06T19:58:02.333Z,15.20
2022-10-06T20:03:07.574Z,15.20
2022-10-06T20:08:12.222Z,15.20
2022-10-06T20:13:15.518Z,15.00
2022-10-06T20:18:19.119Z,15.00
2022-10-06T20:23:24.313Z,14.90
2022-10-06T20:28:28.702Z,14.90
2022-10-06T20:33:34.419Z,14.80
2022-10-06T20:38:56.453Z,14.80
2022-10-06T20:44:00.895Z,14.80
2022-10-06T20:49:07.141Z,14.70
2022-10-06T20:54:11.834Z,14.70
2022-10-06T20:59:15.251Z,14.50
2022-10-06T21:04:18.866Z,14.30
2022-10-06T21:09:24.459Z,14.20
2022-10-06T21:14:28.216Z,14.30
2022-10-06T21:19:31.566Z,14.30
2022-10-06T21:24:36.545Z,14.30
2022-10-06T21:29:40.039Z,14.30
2022-10-06T21:34:43.402Z,14.20
2022-10-06T21:39:48.036Z,14.20
2022-10-06T21:44:51.369Z,14.10
2022-10-06T21:49:54.839Z,14.10
2022-10-06T21:54:59.549Z,14.00
2022-10-06T22:00:03.087Z,14.00
2022-10-06T22:05:07.292Z,13.90
2022-10-06T22:10:12.081Z,13.90
2022-10-06T22:15:15.571Z,13.90
2022-10-06T22:20:18.896Z,13.90
2022-10-06T22:25:23.804Z,13.80
2022-10-06T22:30:27.165Z,13.70
2022-10-06T22:35:30.722Z,13.60
2022-10-06T22:40:35.496Z,13.60
2022-10-06T22:45:39.129Z,13.50
2022-10-06T22:50:42.449Z,13.40
2022-10-06T22:55:47.529Z,13.30
2022-10-06T23:00:51.035Z,13.20
2022-10-06T23:05:55.966Z,13.20
2022-10-06T23:11:06.682Z,13.10
2022-10-06T23:16:11.482Z,13.00
2022-10-06T23:21:19.379Z,12.90
2022-10-06T23:26:25.284Z,12.90
2022-10-06T23:31:29.507Z,12.80
2022-10-06T23:36:33.104Z,12.80
2022-10-06T23:41:37.770Z,12.70
2022-10-06T23:46:41.100Z,12.70
2022-10-06T23:51:44.702Z,12.60
2022-10-06T23:56:51.440Z,12.50
